aviador You're here:

KEYF Decoded Metar

ELIZABETHTOWN in NC, USA
Report Time2017-05-26 11:00:00
UTC Time2017-05-26 11:16:55
Flight Rules vfr VFR
Wind250° at 05 kt
W.Decomp.*RWY 33: 1.5 kt HW 4.8 kt LCW
W.Rank250° ranks 10
Current wind is below 250° avg. (5.9)
Visibility9999 m
Phenomena:N/A
Clouds:N/A
Expected CloudBase > 1,600 ft AGL from Temp-Dew spread
CeilingNone
Temp16°C (ISA +1)
Dew Point12°C (77% RH)
AAT14.8°C
QNH1014 hPa
Density Alt440 ft
Elevation135 ft
Report Wrong Elevation
Raw Report
KEYF 261100Z AUTO 25005KT 10SM CLR 16/12 A2993 RMK AO2
T01640122=

Extra information for KEYF:More info

Metar Taf Metar & Taf Last 4 Metars F.Rules Stats Wind Profile Meteogram Temp Stats Airport Information Weather charts Add Link Nearby VenuesMetar ALERT Operation Metar Decoded Social comments

AIRNAV info for KEYF